Time;durP1;ratioP1;P1;durP2;ratioP2;P2;SDS_P1;SDS_P2;PMS_P1;PMS_P2;Temp;Humidity;BMP_temperature;BMP_pressure;BME280_temperature;BME280_humidity;BME280_pressure;Samples;Min_cycle;Max_cycle;Signal;HPM_P1;HPM_P2
2022/05/13 00:01:18;;;;;;;;;1.00;1.00;;;;;14.93;55.37;101715.63;5009277;28;9379;-66
2022/05/13 00:03:45;;;;;;;;;1.00;1.00;;;;;14.93;55.58;101717.50;5001491;28;9389;-65
2022/05/13 00:06:12;;;;;;;;;5.50;1.75;;;;;14.91;55.72;101709.59;5010739;28;9364;-65
2022/05/13 00:08:39;;;;;;;;;1.00;1.00;;;;;14.94;55.55;101708.34;5009574;28;9515;-65
2022/05/13 00:11:08;;;;;;;;;2.00;2.00;;;;;14.94;55.51;101711.03;5005311;28;10242;-66
2022/05/13 00:13:35;;;;;;;;;1.00;1.00;;;;;14.96;55.67;101708.97;5010281;28;9523;-66
2022/05/13 00:16:04;;;;;;;;;2.00;2.00;;;;;14.90;55.58;101709.78;5010418;28;9383;-65
2022/05/13 00:18:32;;;;;;;;;2.00;1.00;;;;;14.87;55.63;101702.91;5010060;28;9509;-66
2022/05/13 00:20:59;;;;;;;;;0.00;0.00;;;;;14.86;55.75;101703.91;5010409;28;10084;-65
2022/05/13 00:23:25;;;;;;;;;2.00;2.00;;;;;14.85;55.67;101696.81;5009753;28;9314;-66
2022/05/13 00:25:52;;;;;;;;;1.00;1.00;;;;;14.86;55.81;101706.63;5008504;28;9364;-66
2022/05/13 00:28:19;;;;;;;;;1.33;1.33;;;;;14.87;55.58;101702.91;5008956;28;9428;-66
2022/05/13 00:30:50;;;;;;;;;1.25;1.25;;;;;14.81;56.19;101696.38;5009216;28;9232;-66
2022/05/13 00:33:18;;;;;;;;;2.00;1.00;;;;;14.82;56.27;101694.50;4999712;28;10257;-66
2022/05/13 00:35:45;;;;;;;;;1.00;1.00;;;;;14.87;56.17;101696.63;4993084;28;9309;-65
2022/05/13 00:38:11;;;;;;;;;1.00;1.00;;;;;14.85;56.31;101694.13;4995204;28;9316;-66
2022/05/13 00:40:40;;;;;;;;;1.00;0.50;;;;;14.87;56.48;101688.47;5008686;28;9377;-66
2022/05/13 00:43:09;;;;;;;;;2.00;2.00;;;;;14.85;56.55;101688.69;4994319;28;9514;-65
2022/05/13 00:45:36;;;;;;;;;1.00;1.00;;;;;14.82;56.89;101684.50;4994185;28;9448;-65
2022/05/13 00:48:02;;;;;;;;;1.33;1.33;;;;;14.81;57.03;101690.97;4993877;28;9394;-65
2022/05/13 00:50:33;;;;;;;;;1.00;1.00;;;;;14.85;56.95;101688.69;4993868;28;9404;-64
2022/05/13 00:53:02;;;;;;;;;1.67;0.00;;;;;14.85;57.09;101685.97;5001883;28;10147;-65
2022/05/13 00:55:41;;;;;;;;;1.67;1.67;;;;;14.82;57.42;101691.81;5027192;28;9371;-65
2022/05/13 00:58:11;;;;;;;;;2.00;2.00;;;;;14.79;57.70;101687.63;5004276;28;9336;-65
2022/05/13 01:00:38;;;;;;;;;1.00;1.00;;;;;14.73;57.98;101688.44;5020365;28;9496;-65
2022/05/13 01:03:07;;;;;;;;;1.00;1.00;;;;;14.71;58.43;101681.56;5013403;28;10030;-66
2022/05/13 01:05:35;;;;;;;;;1.00;1.00;;;;;14.75;58.26;101682.81;5013276;28;9496;-65
2022/05/13 01:08:06;;;;;;;;;3.50;3.00;;;;;14.74;58.50;101679.25;5011992;28;9419;-65
2022/05/13 01:10:35;;;;;;;;;2.75;1.50;;;;;14.72;58.90;101680.50;5006204;28;9445;-65
2022/05/13 01:13:07;;;;;;;;;2.25;2.25;;;;;14.69;59.15;101678.19;5008265;28;9529;-65
2022/05/13 01:15:39;;;;;;;;;3.00;3.00;;;;;14.68;59.33;101673.81;5011865;28;9511;-65
2022/05/13 01:18:07;;;;;;;;;5.00;2.75;;;;;14.63;59.79;101682.56;5011207;28;9657;-65
2022/05/13 01:20:48;;;;;;;;;1.25;1.00;;;;;14.62;60.27;101683.56;5013048;28;9537;-65
2022/05/13 01:23:22;;;;;;;;;2.00;2.00;;;;;14.62;60.31;101678.16;5011954;28;9484;-65
2022/05/13 01:25:56;;;;;;;;;1.00;1.00;;;;;14.63;60.78;101676.31;5007218;28;9466;-65
2022/05/13 01:28:29;;;;;;;;;2.50;1.75;;;;;14.65;60.66;101672.34;5007988;28;9288;-65
2022/05/13 01:30:59;;;;;;;;;4.00;2.50;;;;;14.62;60.84;101670.03;5012637;28;9470;-65
2022/05/13 01:33:28;;;;;;;;;3.67;2.00;;;;;14.59;61.03;101670.44;5012028;28;9519;-65
2022/05/13 01:35:57;;;;;;;;;6.00;2.00;;;;;14.59;61.33;101673.16;5007918;28;9555;-64
2022/05/13 01:38:28;;;;;;;;;0.75;0.75;;;;;14.59;60.82;101662.31;4996894;28;10225;-65
2022/05/13 01:40:55;;;;;;;;;6.50;2.75;;;;;14.58;60.95;101658.78;5005384;28;9526;-65
2022/05/13 01:43:23;;;;;;;;;2.00;1.25;;;;;14.60;61.25;101666.69;5012252;28;9675;-65
2022/05/13 01:45:50;;;;;;;;;5.00;2.50;;;;;14.59;61.08;101668.56;5002336;28;9533;-65
2022/05/13 01:48:17;;;;;;;;;2.75;2.75;;;;;14.61;61.02;101673.78;4994327;28;9801;-65
2022/05/13 01:50:44;;;;;;;;;2.50;2.50;;;;;14.57;60.83;101676.03;5012056;28;9793;-65
2022/05/13 01:53:11;;;;;;;;;3.75;2.75;;;;;14.53;60.51;101674.78;5011858;28;9703;-65
2022/05/13 01:55:42;;;;;;;;;1.25;1.00;;;;;14.51;60.21;101666.03;5004028;28;9522;-65
2022/05/13 01:58:11;;;;;;;;;2.00;2.00;;;;;14.55;59.88;101667.28;5009828;28;9627;-65
2022/05/13 02:00:39;;;;;;;;;3.00;2.00;;;;;14.56;59.60;101658.13;5011803;28;9704;-65
2022/05/13 02:05:51;;;;;;;;;1.50;0.25;;;;;14.63;58.93;101666.28;5006248;28;9499;-65
2022/05/13 02:08:17;;;;;;;;;1.00;1.00;;;;;14.62;58.69;101652.94;5009309;28;10275;-64
2022/05/13 02:10:45;;;;;;;;;1.00;1.00;;;;;14.61;58.39;101643.97;5010159;28;9567;-65
2022/05/13 02:13:13;;;;;;;;;2.00;2.00;;;;;14.63;58.37;101641.09;5011788;28;9591;-65
2022/05/13 02:15:40;;;;;;;;;4.50;3.75;;;;;14.63;58.32;101647.31;5010651;28;9598;-65
2022/05/13 02:18:08;;;;;;;;;2.00;1.00;;;;;14.65;57.98;101647.13;5010810;28;9515;-65
2022/05/13 02:20:36;;;;;;;;;1.00;1.00;;;;;14.67;58.17;101642.34;5006066;28;9393;-65
2022/05/13 02:23:03;;;;;;;;;5.00;3.00;;;;;14.67;57.97;101653.19;5006181;28;10147;-65
2022/05/13 02:25:30;;;;;;;;;2.75;1.75;;;;;14.64;57.84;101654.41;5009329;28;9534;-65
2022/05/13 02:28:00;;;;;;;;;2.00;2.00;;;;;14.60;57.59;101642.31;5005822;28;9468;-65
2022/05/13 02:30:28;;;;;;;;;1.75;1.75;;;;;14.63;57.94;101639.19;5008931;28;9385;-65
2022/05/13 02:32:55;;;;;;;;;1.00;1.00;;;;;14.62;57.57;101637.50;5011592;28;9681;-65
2022/05/13 02:35:21;;;;;;;;;1.00;1.00;;;;;14.57;57.66;101618.31;5010811;28;9525;-65
2022/05/13 02:37:49;;;;;;;;;1.50;1.00;;;;;14.56;57.66;101631.03;5011447;28;9535;-65
2022/05/13 02:40:17;;;;;;;;;2.25;1.50;;;;;14.58;57.67;101631.69;5004382;28;9613;-65
2022/05/13 02:42:44;;;;;;;;;1.67;1.67;;;;;14.55;57.28;101634.78;5011552;28;9525;-65
2022/05/13 02:45:11;;;;;;;;;2.00;2.00;;;;;14.49;57.42;101632.88;5011251;28;9459;-65
2022/05/13 02:47:39;;;;;;;;;1.25;1.00;;;;;14.47;57.33;101634.91;5011088;28;9360;-65
2022/05/13 02:50:20;;;;;;;;;5.00;2.00;;;;;14.45;57.21;101628.03;5008923;28;9464;-65
2022/05/13 02:52:50;;;;;;;;;3.00;1.50;;;;;14.42;56.74;101641.97;5008022;28;10214;-65
2022/05/13 02:55:18;;;;;;;;;1.50;1.50;;;;;14.30;56.33;101638.97;5010466;28;9608;-65
2022/05/13 02:57:45;;;;;;;;;1.25;1.25;;;;;14.29;56.84;101640.84;5008986;28;9444;-65
2022/05/13 03:00:13;;;;;;;;;1.50;0.50;;;;;14.31;56.82;101638.78;5010502;28;9404;-65
2022/05/13 03:02:40;;;;;;;;;1.25;1.25;;;;;14.32;56.66;101640.47;5011098;28;9472;-65
2022/05/13 03:05:07;;;;;;;;;3.00;1.00;;;;;14.28;56.51;101647.31;5009008;28;9489;-64
2022/05/13 03:07:33;;;;;;;;;2.00;1.00;;;;;14.27;56.28;101652.94;5003430;28;9540;-65
2022/05/13 03:10:00;;;;;;;;;3.00;2.00;;;;;14.30;56.37;101647.09;4999500;28;10159;-65
2022/05/13 03:12:26;;;;;;;;;1.75;1.75;;;;;14.30;56.35;101653.38;5011023;28;9464;-65
2022/05/13 03:14:53;;;;;;;;;1.00;1.00;;;;;14.28;56.25;101660.84;5010612;28;9372;-64
2022/05/13 03:17:20;;;;;;;;;1.00;1.00;;;;;14.26;56.27;101652.09;5010882;28;9607;-65
2022/05/13 03:19:46;;;;;;;;;1.00;1.00;;;;;14.27;56.47;101642.94;5005009;28;9529;-64
2022/05/13 03:22:12;;;;;;;;;2.25;1.75;;;;;14.25;56.28;101639.56;5003965;28;9387;-65
2022/05/13 03:24:39;;;;;;;;;0.00;0.00;;;;;14.19;56.26;101650.38;5009338;28;9529;-65
2022/05/13 03:27:07;;;;;;;;;2.00;1.00;;;;;14.16;56.31;101650.78;5010140;28;9443;-64
2022/05/13 03:29:35;;;;;;;;;2.00;2.00;;;;;14.19;56.46;101648.50;5008726;28;9532;-65
2022/05/13 03:32:05;;;;;;;;;1.50;1.50;;;;;14.23;56.04;101646.25;5009976;28;9600;-65
2022/05/13 03:34:31;;;;;;;;;2.75;1.00;;;;;14.24;56.00;101650.63;5009920;28;9603;-65
2022/05/13 03:36:58;;;;;;;;;1.00;1.00;;;;;14.28;56.16;101657.31;5008866;28;10158;-64
2022/05/13 03:39:25;;;;;;;;;1.75;0.25;;;;;14.28;55.73;101654.59;5001978;28;9554;-65
2022/05/13 03:41:51;;;;;;;;;2.00;2.00;;;;;14.21;56.12;101653.72;5007902;28;9459;-65
2022/05/13 03:44:18;;;;;;;;;1.00;1.00;;;;;14.23;55.87;101662.50;5009021;28;9606;-65
2022/05/13 03:46:44;;;;;;;;;1.25;1.25;;;;;14.21;55.95;101651.84;5009569;28;9726;-66
2022/05/13 03:49:11;;;;;;;;;3.00;1.50;;;;;14.20;55.94;101654.75;5009685;28;9542;-65
2022/05/13 03:51:38;;;;;;;;;1.75;1.75;;;;;14.22;55.91;101656.25;5009553;28;9597;-65
2022/05/13 03:54:04;;;;;;;;;2.00;1.25;;;;;14.24;55.73;101656.88;5010396;28;9510;-65
2022/05/13 03:56:31;;;;;;;;;2.00;2.00;;;;;14.25;55.86;101655.81;5005916;28;9414;-65
2022/05/13 03:58:57;;;;;;;;;1.00;1.00;;;;;14.27;56.07;101653.75;5010220;28;9664;-65
2022/05/13 04:01:24;;;;;;;;;2.00;2.00;;;;;14.27;56.07;101653.75;4999874;28;9445;-65
2022/05/13 04:03:51;;;;;;;;;3.00;2.00;;;;;14.24;56.38;101658.75;4992387;28;9456;-64
2022/05/13 04:09:04;;;;;;;;;0.00;0.00;;;;;14.25;57.20;101645.00;5011064;28;10308;-65
2022/05/13 04:11:33;;;;;;;;;3.75;2.00;;;;;14.26;56.99;101649.41;5014344;28;9423;-66
2022/05/13 04:16:45;;;;;;;;;2.00;2.00;;;;;14.21;57.42;101654.53;5021406;28;10168;-65
2022/05/13 04:19:12;;;;;;;;;1.00;1.00;;;;;14.19;57.17;101651.22;4994426;28;9688;-66
2022/05/13 04:21:40;;;;;;;;;1.75;1.75;;;;;14.24;57.31;101669.56;4998930;28;9517;-66
2022/05/13 04:24:10;;;;;;;;;1.75;1.75;;;;;14.26;57.14;101667.47;5014023;28;9688;-66
2022/05/13 04:26:37;;;;;;;;;2.00;1.00;;;;;14.27;56.85;101669.19;5014001;28;9688;-66
2022/05/13 04:29:06;;;;;;;;;1.25;1.00;;;;;14.23;56.67;101665.19;5013776;28;9515;-65
2022/05/13 04:31:36;;;;;;;;;2.25;2.25;;;;;14.19;57.28;101663.91;5010871;28;9700;-66
2022/05/13 04:34:04;;;;;;;;;2.00;2.00;;;;;14.20;57.40;101674.53;5005557;28;9598;-66
2022/05/13 04:36:31;;;;;;;;;2.25;2.25;;;;;14.20;57.67;101668.28;5011402;28;9535;-66
2022/05/13 04:38:58;;;;;;;;;3.00;2.50;;;;;14.19;57.76;101672.88;5013685;28;9885;-64
2022/05/13 04:44:13;;;;;;;;;1.00;1.00;;;;;14.10;58.35;101674.06;5012181;28;9585;-63
2022/05/13 04:46:39;;;;;;;;;1.50;1.50;;;;;14.12;58.35;101677.41;5013609;28;9529;-64
2022/05/13 04:49:07;;;;;;;;;2.75;1.75;;;;;14.10;58.92;101684.91;5013000;28;10242;-65
2022/05/13 04:51:34;;;;;;;;;1.00;1.00;;;;;14.07;59.07;101685.28;5011187;28;9690;-63
2022/05/13 04:54:00;;;;;;;;;1.50;1.50;;;;;14.00;59.33;101690.63;5013568;28;9668;-64
2022/05/13 04:56:29;;;;;;;;;2.75;1.50;;;;;14.01;59.91;101695.00;5002354;28;9619;-62
2022/05/13 04:58:57;;;;;;;;;5.25;3.50;;;;;14.09;59.72;101691.31;4992368;28;10329;-65
2022/05/13 05:01:24;;;;;;;;;4.75;2.50;;;;;14.08;59.93;101698.63;4999959;28;9572;-64
2022/05/13 05:03:51;;;;;;;;;4.00;1.00;;;;;14.09;60.21;101699.44;5000435;28;9733;-64
2022/05/13 05:06:19;;;;;;;;;3.75;2.00;;;;;14.13;60.19;101698.03;5010831;28;9610;-64
2022/05/13 05:08:47;;;;;;;;;2.00;2.00;;;;;14.19;60.20;101705.38;5012872;28;9548;-64
2022/05/13 05:11:15;;;;;;;;;3.75;2.00;;;;;14.14;60.03;101707.84;5012836;28;10222;-64
2022/05/13 05:13:45;;;;;;;;;3.00;2.00;;;;;14.10;60.28;101707.38;5011228;28;9602;-64
2022/05/13 05:16:12;;;;;;;;;4.00;2.00;;;;;13.97;60.23;101712.69;5012942;28;9596;-64
2022/05/13 05:18:40;;;;;;;;;1.00;1.00;;;;;13.99;60.25;101716.03;5012307;28;9523;-64
2022/05/13 05:21:09;;;;;;;;;4.25;2.00;;;;;14.06;60.31;101719.66;5006078;28;9691;-65
2022/05/13 05:23:38;;;;;;;;;1.25;1.25;;;;;14.13;59.84;101719.69;4999127;28;9578;-64
2022/05/13 05:26:06;;;;;;;;;0.50;0.50;;;;;14.20;59.83;101722.44;5009454;28;9517;-65
2022/05/13 05:28:33;;;;;;;;;3.25;2.00;;;;;14.17;59.81;101731.78;5012539;28;9524;-65
2022/05/13 05:31:00;;;;;;;;;1.00;1.00;;;;;14.14;59.75;101739.47;5012428;28;9625;-65
2022/05/13 05:33:27;;;;;;;;;1.00;1.00;;;;;14.11;59.70;101740.72;5008694;28;9486;-65
2022/05/13 05:35:54;;;;;;;;;1.67;1.67;;;;;14.05;59.44;101738.78;5010590;28;9461;-65
2022/05/13 05:38:20;;;;;;;;;0.00;0.00;;;;;14.02;59.72;101737.31;5002962;28;9450;-65
2022/05/13 05:40:47;;;;;;;;;2.00;0.75;;;;;14.05;59.69;101730.66;5011923;28;9406;-65
2022/05/13 05:43:16;;;;;;;;;1.75;0.00;;;;;14.09;59.39;101740.88;5004028;28;9541;-65
2022/05/13 05:45:43;;;;;;;;;2.00;2.00;;;;;14.05;59.46;101739.59;5012425;28;9438;-65
2022/05/13 05:48:15;;;;;;;;;2.00;2.00;;;;;14.05;59.37;101757.72;5012179;28;9513;-65
2022/05/13 05:50:41;;;;;;;;;2.00;2.00;;;;;14.06;59.54;101756.72;5011997;28;9450;-65
2022/05/13 05:53:08;;;;;;;;;1.25;1.00;;;;;14.10;59.27;101755.28;5011949;28;9503;-65
2022/05/13 05:58:19;;;;;;;;;1.00;1.00;;;;;14.07;59.48;101752.97;5010299;28;9441;-65
2022/05/13 06:00:49;;;;;;;;;1.00;1.00;;;;;14.07;59.09;101769.22;5011807;28;9710;-65
2022/05/13 06:03:17;;;;;;;;;1.75;1.75;;;;;14.13;59.35;101767.59;5010798;28;9368;-63
2022/05/13 06:05:56;;;;;;;;;3.50;1.50;;;;;14.10;58.99;101769.66;5008573;28;9503;-65
2022/05/13 06:08:23;;;;;;;;;1.00;1.00;;;;;14.07;58.64;101769.22;5006191;28;9455;-65
2022/05/13 06:10:50;;;;;;;;;1.00;1.00;;;;;14.06;59.21;101778.38;5011567;28;9554;-65
2022/05/13 06:13:16;;;;;;;;;2.00;1.00;;;;;14.10;59.05;101776.94;4992054;28;9470;-67
2022/05/13 06:15:43;;;;;;;;;1.00;1.00;;;;;14.17;59.14;101775.13;4995982;28;10248;-65
2022/05/13 06:18:09;;;;;;;;;1.00;0.75;;;;;14.22;58.69;101780.81;5011421;28;10209;-65
2022/05/13 06:20:36;;;;;;;;;0.00;0.00;;;;;14.25;58.42;101780.41;5009402;28;10291;-65
2022/05/13 06:23:07;;;;;;;;;2.00;1.00;;;;;14.28;58.13;101780.00;5010680;28;9397;-66
2022/05/13 06:25:34;;;;;;;;;2.00;2.00;;;;;14.33;58.23;101782.13;5011538;28;9440;-65
2022/05/13 06:28:01;;;;;;;;;2.00;2.00;;;;;14.37;58.07;101788.81;5011159;28;9456;-65
2022/05/13 06:30:31;;;;;;;;;3.50;2.00;;;;;14.39;57.85;101788.66;5002338;28;9503;-65
2022/05/13 06:32:58;;;;;;;;;1.00;1.00;;;;;14.44;57.59;101799.72;5003379;28;9522;-65
2022/05/13 06:35:26;;;;;;;;;1.00;1.00;;;;;14.50;57.52;101793.53;5005524;28;9391;-65
2022/05/13 06:37:53;;;;;;;;;1.00;1.00;;;;;14.58;56.98;101799.69;5004001;28;9390;-65
2022/05/13 06:40:23;;;;;;;;;3.00;1.00;;;;;14.62;57.09;101783.84;5003074;28;9378;-65
2022/05/13 06:42:53;;;;;;;;;2.00;1.75;;;;;14.64;56.90;101787.19;4990028;28;9372;-65
2022/05/13 06:45:21;;;;;;;;;2.33;1.33;;;;;14.67;56.87;101794.09;5004638;28;9652;-65
2022/05/13 06:47:48;;;;;;;;;2.25;1.00;;;;;14.68;56.90;101784.94;5002940;28;9313;-65
2022/05/13 06:50:16;;;;;;;;;1.33;1.33;;;;;14.71;56.65;101784.53;5004128;28;9528;-64
2022/05/13 06:52:44;;;;;;;;;1.00;1.00;;;;;14.72;56.42;101784.34;5002068;28;9316;-65
2022/05/13 06:55:13;;;;;;;;;3.00;0.00;;;;;14.78;56.16;101796.25;5004299;28;9453;-65
2022/05/13 06:57:39;;;;;;;;;0.33;0.33;;;;;14.82;56.04;101792.94;5007123;28;9525;-65
2022/05/13 07:00:08;;;;;;;;;0.33;0.00;;;;;14.88;56.22;101802.16;5007794;28;9454;-64
2022/05/13 07:02:35;;;;;;;;;1.00;0.33;;;;;14.88;56.09;101802.16;5003554;28;9150;-65
2022/05/13 07:05:03;;;;;;;;;0.00;0.00;;;;;14.87;55.91;101805.03;5001995;28;9328;-65
2022/05/13 07:07:30;;;;;;;;;4.67;2.00;;;;;14.88;55.67;101804.03;5002161;28;9319;-64
2022/05/13 07:09:56;;;;;;;;;1.00;0.00;;;;;14.89;55.39;101800.28;5018971;28;9418;-66
2022/05/13 07:12:23;;;;;;;;;1.00;1.00;;;;;14.84;55.51;101803.59;5003769;28;9397;-65
2022/05/13 07:14:49;;;;;;;;;0.33;0.00;;;;;14.93;55.50;101812.41;5004207;28;11887;-64
2022/05/13 07:17:16;;;;;;;;;0.67;0.67;;;;;14.94;55.67;101812.19;5003646;28;9080;-65
2022/05/13 07:19:42;;;;;;;;;0.00;0.00;;;;;15.03;55.98;101818.31;5002485;28;9413;-65
2022/05/13 07:22:09;;;;;;;;;1.33;1.00;;;;;15.10;55.65;101813.75;5003710;28;9237;-65
2022/05/13 07:24:35;;;;;;;;;2.00;2.00;;;;;15.17;54.96;101827.34;5001282;28;9251;-65
2022/05/13 07:27:03;;;;;;;;;1.00;1.00;;;;;15.15;54.87;101827.56;5002709;28;9223;-65
2022/05/13 07:29:30;;;;;;;;;1.00;1.00;;;;;15.16;55.17;101829.22;5004018;28;9316;-65
2022/05/13 07:31:56;;;;;;;;;1.00;1.00;;;;;15.22;55.27;101825.69;5005275;28;9365;-65
2022/05/13 07:34:23;;;;;;;;;1.67;1.67;;;;;15.21;54.85;101834.88;5007633;28;9243;-65
2022/05/13 07:36:53;;;;;;;;;1.33;1.00;;;;;15.22;55.17;101831.13;5006554;28;9314;-66
2022/05/13 07:42:08;;;;;;;;;1.00;1.00;;;;;15.25;54.89;101835.31;5013333;28;9257;-65
2022/05/13 07:44:35;;;;;;;;;0.00;0.00;;;;;15.36;54.75;101837.47;5008276;28;9278;-65
2022/05/13 07:47:06;;;;;;;;;0.00;0.00;;;;;15.42;54.43;101846.66;5005134;28;9065;-65
2022/05/13 07:49:34;;;;;;;;;0.33;0.33;;;;;15.46;54.41;101853.38;5016080;28;9212;-64
2022/05/13 07:52:01;;;;;;;;;0.33;0.33;;;;;15.38;54.37;101850.81;5005347;28;9323;-65
2022/05/13 07:54:27;;;;;;;;;1.33;1.33;;;;;15.44;54.38;101844.59;5003573;28;9244;-64
2022/05/13 07:56:54;;;;;;;;;1.00;1.00;;;;;15.46;54.62;101848.78;5001195;28;9238;-64
2022/05/13 07:59:20;;;;;;;;;1.67;1.67;;;;;15.47;54.57;101852.31;4997938;28;9168;-66
2022/05/13 08:01:47;;;;;;;;;2.00;1.33;;;;;15.47;54.24;101858.56;5005444;28;9176;-66
2022/05/13 08:04:13;;;;;;;;;0.00;0.00;;;;;15.40;54.27;101860.44;5006843;28;9139;-65
2022/05/13 08:06:41;;;;;;;;;1.00;1.00;;;;;15.39;54.42;101855.19;5006356;28;9209;-65
2022/05/13 08:09:08;;;;;;;;;1.00;1.00;;;;;15.40;54.23;101860.44;5009935;28;9304;-65
2022/05/13 08:11:34;;;;;;;;;0.67;0.00;;;;;15.42;54.35;101858.34;5009726;28;9302;-66
2022/05/13 08:14:06;;;;;;;;;1.00;1.00;;;;;15.47;53.87;101858.56;5010014;28;9166;-66
2022/05/13 08:16:35;;;;;;;;;2.00;2.00;;;;;15.43;54.18;101859.19;5009824;28;9220;-65
2022/05/13 08:19:02;;;;;;;;;0.67;0.67;;;;;15.44;54.02;101867.16;5010504;28;9293;-65
2022/05/13 08:21:29;;;;;;;;;1.00;1.00;;;;;15.42;54.13;101868.38;5009632;28;9181;-65
2022/05/13 08:23:55;;;;;;;;;3.00;1.00;;;;;15.40;54.42;101860.44;5010225;28;9070;-65
2022/05/13 08:26:22;;;;;;;;;1.67;1.67;;;;;15.49;54.22;101867.38;5009780;28;9471;-65
2022/05/13 08:28:48;;;;;;;;;1.00;0.00;;;;;15.50;54.16;101865.50;5009797;28;9235;-65
2022/05/13 08:31:15;;;;;;;;;1.00;1.00;;;;;15.48;53.94;101867.59;5009702;28;9149;-65
2022/05/13 08:33:42;;;;;;;;;1.33;1.00;;;;;15.52;53.96;101880.53;5010158;28;9219;-65
2022/05/13 08:36:14;;;;;;;;;2.00;2.00;;;;;15.52;53.72;101887.84;5009914;28;9987;-65
2022/05/13 08:38:42;;;;;;;;;2.00;2.00;;;;;15.53;54.20;101893.06;5009980;28;9166;-65
2022/05/13 08:41:08;;;;;;;;;0.33;0.33;;;;;15.56;54.46;101883.69;5009633;28;9241;-65
2022/05/13 08:43:49;;;;;;;;;1.00;1.00;;;;;15.59;54.25;101883.25;5008582;28;9181;-66
2022/05/13 08:46:16;;;;;;;;;1.00;1.00;;;;;15.58;54.49;101878.88;5009971;28;9780;-64
2022/05/13 08:48:53;;;;;;;;;1.00;1.00;;;;;15.54;54.45;101883.88;5009812;28;9209;-65
2022/05/13 08:51:57;;;;;;;;;1.00;0.00;;;;;15.61;54.30;101885.78;5009757;28;9303;-65
2022/05/13 08:54:30;;;;;;;;;2.67;1.67;;;;;15.72;54.18;101886.09;5013613;28;9001;-65
2022/05/13 08:57:01;;;;;;;;;1.00;1.00;;;;;15.83;54.18;101876.50;5012682;28;9130;-66
2022/05/13 08:59:52;;;;;;;;;2.00;1.00;;;;;15.91;53.84;101889.06;5013396;28;9079;-66
2022/05/13 09:02:23;;;;;;;;;3.00;2.00;;;;;15.91;53.72;101891.78;5013100;28;9224;-67
2022/05/13 09:05:06;;;;;;;;;0.00;0.00;;;;;15.99;53.85;101891.59;5013389;28;9269;-67
2022/05/13 09:07:33;;;;;;;;;2.00;1.00;;;;;16.00;53.20;101888.69;5012711;28;8999;-67
2022/05/13 09:10:02;;;;;;;;;2.00;2.00;;;;;15.99;52.97;101903.28;5013322;28;9140;-65
2022/05/13 09:12:54;;;;;;;;;1.00;0.00;;;;;15.92;52.94;101907.03;5012578;28;9159;-67
2022/05/13 09:15:33;;;;;;;;;0.67;0.67;;;;;15.86;52.61;101905.13;5013251;28;8980;-66
2022/05/13 09:18:04;;;;;;;;;1.00;0.00;;;;;15.89;53.10;101907.44;5012820;28;9016;-66
2022/05/13 09:20:59;;;;;;;;;0.00;0.00;;;;;16.01;53.02;101898.50;5013047;28;9665;-67
2022/05/13 09:23:26;;;;;;;;;1.00;1.00;;;;;16.13;52.96;101908.78;5005405;28;9061;-66
2022/05/13 09:26:15;;;;;;;;;2.33;1.00;;;;;16.23;52.79;101909.22;5012860;28;8996;-66
2022/05/13 09:28:59;;;;;;;;;3.00;0.00;;;;;16.31;52.48;101898.97;5012443;28;8939;-66
2022/05/13 09:31:28;;;;;;;;;1.00;1.00;;;;;16.38;52.08;101898.16;5011431;28;8874;-66
2022/05/13 09:34:34;;;;;;;;;2.67;2.00;;;;;16.45;52.23;101899.03;5013028;28;8996;-66
2022/05/13 09:37:10;;;;;;;;;1.00;1.00;;;;;16.48;51.95;101901.31;5012128;28;9797;-66
2022/05/13 09:39:44;;;;;;;;;1.50;0.75;;;;;16.50;51.88;101901.94;5012649;28;8992;-67
2022/05/13 09:42:33;;;;;;;;;1.25;1.00;;;;;16.47;51.33;101899.63;5011161;28;8842;-67
2022/05/13 09:45:16;;;;;;;;;1.75;0.25;;;;;16.62;51.55;101903.00;5012624;28;8823;-67
2022/05/13 09:48:04;;;;;;;;;1.00;0.50;;;;;16.74;51.54;101900.53;4992730;28;8833;-67
2022/05/13 09:50:44;;;;;;;;;1.00;0.50;;;;;16.92;51.22;101906.16;4995729;28;9005;-67
2022/05/13 09:53:29;;;;;;;;;0.50;0.50;;;;;16.96;50.83;101907.41;5012436;28;8827;-67
2022/05/13 09:55:59;;;;;;;;;1.25;1.00;;;;;16.98;50.22;101913.50;5010975;28;9546;-67
2022/05/13 09:58:37;;;;;;;;;1.00;1.00;;;;;16.88;50.16;101913.06;5011950;28;8897;-67
2022/05/13 10:01:09;;;;;;;;;1.00;1.00;;;;;16.85;50.51;101915.38;5012079;28;8857;-67
2022/05/13 10:03:37;;;;;;;;;0.25;0.25;;;;;16.91;49.98;101911.81;5010657;28;8819;-66
2022/05/13 10:06:10;;;;;;;;;2.75;2.00;;;;;16.96;49.86;101915.56;5011319;28;8831;-67
2022/05/13 10:08:56;;;;;;;;;1.00;1.00;;;;;17.00;49.87;101918.72;5011812;28;8926;-67
2022/05/13 10:14:34;;;;;;;;;1.00;1.00;;;;;17.16;50.14;101918.28;5007328;28;8843;-67
2022/05/13 10:17:17;;;;;;;;;1.25;1.00;;;;;17.20;49.08;101914.06;5011664;28;9542;-65
2022/05/13 10:19:50;;;;;;;;;0.75;0.75;;;;;17.26;48.96;101915.97;5011614;28;8826;-66
2022/05/13 10:22:43;;;;;;;;;2.50;0.75;;;;;17.27;49.13;101911.34;5011661;28;9397;-64
2022/05/13 10:25:16;;;;;;;;;1.50;1.25;;;;;17.34;49.17;101914.03;5012002;28;8839;-65
2022/05/13 10:27:52;;;;;;;;;0.75;0.75;;;;;17.45;48.83;101911.50;5011543;28;8827;-65
2022/05/13 10:30:36;;;;;;;;;0.25;0.00;;;;;17.47;48.47;101920.31;5011659;28;8842;-65
2022/05/13 10:33:24;;;;;;;;;2.50;0.50;;;;;17.48;48.58;101930.13;5011383;28;8823;-65
2022/05/13 10:35:57;;;;;;;;;2.00;1.00;;;;;17.29;48.07;101934.56;5011236;28;9554;-64
2022/05/13 10:38:35;;;;;;;;;1.00;1.00;;;;;17.12;48.62;101927.91;5005876;28;8911;-65
2022/05/13 10:41:25;;;;;;;;;4.00;1.00;;;;;17.03;48.90;101930.00;4991538;28;8850;-66
2022/05/13 10:44:01;;;;;;;;;2.50;0.25;;;;;16.91;49.33;101912.66;5021250;28;8834;-65
2022/05/13 10:46:51;;;;;;;;;1.00;1.00;;;;;16.88;49.82;101925.81;5010588;28;8822;-65
2022/05/13 10:49:37;;;;;;;;;3.25;2.50;;;;;16.83;49.84;101920.19;5010362;28;8901;-65
2022/05/13 10:52:21;;;;;;;;;1.75;1.75;;;;;16.93;49.76;101924.16;5011129;28;8831;-65
2022/05/13 10:55:05;;;;;;;;;2.00;1.00;;;;;17.00;49.31;101919.53;5010910;28;8918;-65
2022/05/13 10:57:45;;;;;;;;;2.75;1.00;;;;;17.13;48.91;101929.56;5010806;28;8912;-65
2022/05/13 11:00:23;;;;;;;;;3.00;1.50;;;;;17.27;48.53;101936.69;5006763;28;8823;-65
2022/05/13 11:03:14;;;;;;;;;1.00;1.00;;;;;17.41;47.75;101932.03;5009609;28;8913;-65
2022/05/13 11:05:56;;;;;;;;;1.33;1.33;;;;;17.53;47.95;101937.66;5009171;28;9028;-65
2022/05/13 11:08:34;;;;;;;;;2.00;1.00;;;;;17.47;47.00;101933.91;5006883;28;8980;-65
2022/05/13 11:11:29;;;;;;;;;1.50;1.00;;;;;17.52;47.02;101931.38;5010556;28;8905;-65
2022/05/13 11:14:26;;;;;;;;;2.25;2.00;;;;;17.62;47.13;101939.09;5004644;28;8853;-64
2022/05/13 11:17:03;;;;;;;;;1.00;1.00;;;;;17.70;46.21;101933.44;5001818;28;8846;-66
2022/05/13 11:19:40;;;;;;;;;0.75;0.75;;;;;17.73;46.56;101926.72;5003153;28;8829;-65
2022/05/13 11:22:23;;;;;;;;;1.00;1.00;;;;;17.63;45.79;101929.06;5002701;28;8863;-65
2022/05/13 11:28:23;;;;;;;;;2.25;1.00;;;;;17.43;47.10;101929.94;5004381;28;8890;-65
2022/05/13 11:31:14;;;;;;;;;0.75;0.00;;;;;17.52;46.99;101933.28;5003987;28;8859;-64
2022/05/13 11:34:05;;;;;;;;;3.00;1.25;;;;;17.57;47.22;101947.06;5002879;28;8832;-65
2022/05/13 11:37:02;;;;;;;;;3.00;3.00;;;;;17.53;47.07;101949.38;5002560;28;8843;-64
2022/05/13 11:39:55;;;;;;;;;1.00;1.00;;;;;17.47;47.34;101944.81;5002721;28;8867;-63
2022/05/13 11:46:18;;;;;;;;;2.75;1.00;;;;;17.42;47.49;101949.19;5003900;28;8826;-64
2022/05/13 11:48:48;;;;;;;;;4.50;2.00;;;;;17.40;47.70;101943.16;5003831;28;8861;-61
2022/05/13 11:51:17;;;;;;;;;2.25;2.00;;;;;17.30;48.10;101946.31;5003904;28;8827;-64
2022/05/13 11:53:59;;;;;;;;;3.00;1.00;;;;;17.28;48.17;101951.94;5003869;28;8829;-62
2022/05/13 11:56:31;;;;;;;;;3.50;2.00;;;;;17.30;47.52;101954.47;5003771;28;8850;-65
2022/05/13 11:59:11;;;;;;;;;1.00;1.00;;;;;17.37;47.63;101959.91;5001788;28;8989;-64
2022/05/13 12:01:43;;;;;;;;;2.50;2.00;;;;;17.43;47.37;101959.06;5003313;28;9106;-66
2022/05/13 12:04:13;;;;;;;;;1.00;1.00;;;;;17.50;47.80;101959.84;5007176;28;8857;-64
2022/05/13 12:06:52;;;;;;;;;1.50;1.50;;;;;17.60;46.80;101962.16;5003548;28;8815;-59
2022/05/13 12:09:38;;;;;;;;;2.00;2.00;;;;;17.60;46.72;101957.53;5002425;28;9620;-66
2022/05/13 12:12:34;;;;;;;;;1.00;0.00;;;;;17.69;47.34;101964.41;5002942;28;8955;-65
2022/05/13 12:15:28;;;;;;;;;2.00;2.00;;;;;17.75;47.55;101957.34;5003800;28;8839;-64
2022/05/13 12:18:09;;;;;;;;;3.00;2.00;;;;;17.72;47.26;101953.09;5001519;28;8815;-63